createdAt,value
2022-10-08T00:00:08.243Z,957.07
2022-10-08T00:01:08.228Z,957.03
2022-10-08T00:02:08.266Z,957.05
2022-10-08T00:03:08.205Z,957.06
2022-10-08T00:04:08.263Z,957.07
2022-10-08T00:05:08.183Z,957.03
2022-10-08T00:06:08.168Z,957.06
2022-10-08T00:07:08.152Z,957.09
2022-10-08T00:08:08.139Z,957.05
2022-10-08T00:09:08.142Z,957.06
2022-10-08T00:10:08.116Z,957.04
2022-10-08T00:11:08.096Z,957.07
2022-10-08T00:12:08.086Z,957.07
2022-10-08T00:13:08.073Z,957.10
2022-10-08T00:14:08.085Z,957.07
2022-10-08T00:15:08.047Z,957.07
2022-10-08T00:16:08.057Z,957.09
2022-10-08T00:17:08.016Z,957.10
2022-10-08T00:18:08.023Z,957.09
2022-10-08T00:19:07.997Z,957.05
2022-10-08T00:20:07.972Z,957.04
2022-10-08T00:21:07.957Z,957.05
2022-10-08T00:22:07.985Z,957.05
2022-10-08T00:23:07.967Z,957.04
2022-10-08T00:24:07.928Z,957.04
2022-10-08T00:25:07.894Z,957.02
2022-10-08T00:26:07.892Z,957.01
2022-10-08T00:27:07.889Z,957.02
2022-10-08T00:28:07.922Z,957.05
2022-10-08T00:29:07.850Z,957.03
2022-10-08T00:30:07.836Z,957.00
2022-10-08T00:31:07.891Z,957.01
2022-10-08T00:32:07.856Z,956.99
2022-10-08T00:33:07.834Z,956.99
2022-10-08T00:34:07.782Z,956.98
2022-10-08T00:35:07.790Z,956.96
2022-10-08T00:36:07.762Z,956.93
2022-10-08T00:37:07.773Z,956.97
2022-10-08T00:38:07.758Z,956.93
2022-10-08T00:39:07.712Z,956.95
2022-10-08T00:40:07.702Z,956.97
2022-10-08T00:41:07.705Z,956.95
2022-10-08T00:42:07.704Z,956.96
2022-10-08T00:43:07.654Z,956.95
2022-10-08T00:44:07.679Z,956.94
2022-10-08T00:45:07.632Z,957.00
2022-10-08T00:46:07.721Z,957.00
2022-10-08T00:47:07.631Z,956.94
2022-10-08T00:48:07.597Z,956.94
2022-10-08T00:49:07.581Z,956.98
2022-10-08T00:50:07.597Z,956.96
2022-10-08T00:51:07.559Z,956.92
2022-10-08T00:52:07.545Z,956.95
2022-10-08T00:53:07.554Z,956.94
2022-10-08T00:54:07.532Z,956.95
2022-10-08T00:55:07.492Z,956.95
2022-10-08T00:56:07.490Z,956.93
2022-10-08T00:57:07.473Z,956.93
2022-10-08T00:58:07.499Z,956.90
2022-10-08T00:59:07.445Z,956.91
2022-10-08T01:00:07.459Z,956.94
2022-10-08T01:01:07.487Z,956.89
2022-10-08T01:02:07.526Z,956.89
2022-10-08T01:03:07.417Z,956.89
2022-10-08T01:04:07.400Z,956.91
2022-10-08T01:05:07.366Z,956.85
2022-10-08T01:06:07.388Z,956.88
2022-10-08T01:07:07.355Z,956.85
2022-10-08T01:08:07.331Z,956.82
2022-10-08T01:09:07.314Z,956.85
2022-10-08T01:10:07.330Z,956.83
2022-10-08T01:11:07.328Z,956.87
2022-10-08T01:12:07.279Z,956.86
2022-10-08T01:13:07.286Z,956.86
2022-10-08T01:14:07.261Z,956.82
2022-10-08T01:15:07.246Z,956.82
2022-10-08T01:16:07.315Z,956.84
2022-10-08T01:17:07.202Z,956.82
2022-10-08T01:18:07.199Z,956.82
2022-10-08T01:19:07.207Z,956.79
2022-10-08T01:20:07.200Z,956.83
2022-10-08T01:21:07.214Z,956.82
2022-10-08T01:22:07.151Z,956.74
2022-10-08T01:23:07.134Z,956.77
2022-10-08T01:24:07.135Z,956.67
2022-10-08T01:25:07.122Z,956.71
2022-10-08T01:26:07.090Z,956.71
2022-10-08T01:27:07.070Z,956.76
2022-10-08T01:28:07.158Z,956.76
2022-10-08T01:29:07.068Z,956.78
2022-10-08T01:30:07.035Z,956.79
2022-10-08T01:31:07.052Z,956.75
2022-10-08T01:32:07.030Z,956.75
2022-10-08T01:33:06.995Z,956.73
2022-10-08T01:34:06.989Z,956.75
2022-10-08T01:35:06.970Z,956.76
2022-10-08T01:36:06.991Z,956.75
2022-10-08T01:37:06.957Z,956.75
2022-10-08T01:38:06.938Z,956.74
2022-10-08T01:39:06.914Z,956.72
2022-10-08T01:40:06.895Z,956.76
2022-10-08T01:41:06.881Z,956.73
2022-10-08T01:42:06.904Z,956.74
2022-10-08T01:43:06.884Z,956.71
2022-10-08T01:44:06.871Z,956.73
2022-10-08T01:45:06.918Z,956.73
2022-10-08T01:46:06.940Z,956.75
2022-10-08T01:47:06.800Z,956.72
2022-10-08T01:48:06.815Z,956.72
2022-10-08T01:49:06.773Z,956.71
2022-10-08T01:50:06.777Z,956.69
2022-10-08T01:51:06.753Z,956.70
2022-10-08T01:52:06.739Z,956.69
2022-10-08T01:53:06.746Z,956.73
2022-10-08T01:54:06.711Z,956.70
2022-10-08T01:55:06.702Z,956.71
2022-10-08T01:56:06.815Z,956.73
2022-10-08T01:57:06.660Z,956.67
2022-10-08T01:58:06.707Z,956.67
2022-10-08T01:59:06.639Z,956.64
2022-10-08T02:00:06.632Z,956.62
2022-10-08T02:01:06.679Z,956.69
2022-10-08T02:02:06.630Z,956.63
2022-10-08T02:03:06.630Z,956.69
2022-10-08T02:04:06.631Z,956.63
2022-10-08T02:05:06.564Z,956.64
2022-10-08T02:06:06.554Z,956.66
2022-10-08T02:07:06.563Z,956.66
2022-10-08T02:08:06.626Z,956.66
2022-10-08T02:09:06.507Z,956.69
2022-10-08T02:10:06.507Z,956.71
2022-10-08T02:11:06.481Z,956.66
2022-10-08T02:12:06.468Z,956.66
2022-10-08T02:13:06.488Z,956.64
2022-10-08T02:14:06.459Z,956.62
2022-10-08T02:15:06.430Z,956.57
2022-10-08T02:16:06.446Z,956.56
2022-10-08T02:17:06.423Z,956.57
2022-10-08T02:18:06.393Z,956.57
2022-10-08T02:19:06.464Z,956.61
2022-10-08T02:20:06.388Z,956.61
2022-10-08T02:21:06.342Z,956.58
2022-10-08T02:22:06.339Z,956.56
2022-10-08T02:23:06.320Z,956.56
2022-10-08T02:24:06.413Z,956.57
2022-10-08T02:25:06.293Z,956.58
2022-10-08T02:26:06.358Z,956.56
2022-10-08T02:27:06.267Z,956.56
2022-10-08T02:28:06.359Z,956.55
2022-10-08T02:29:06.279Z,956.55
2022-10-08T02:30:06.252Z,956.53
2022-10-08T02:31:06.238Z,956.58
2022-10-08T02:32:06.272Z,956.61
2022-10-08T02:33:06.186Z,956.58
2022-10-08T02:34:06.176Z,956.57
2022-10-08T02:35:06.178Z,956.52
2022-10-08T02:36:06.149Z,956.59
2022-10-08T02:37:06.132Z,956.59
2022-10-08T02:38:06.118Z,956.58
2022-10-08T02:39:06.142Z,956.60
2022-10-08T02:40:06.099Z,956.60
2022-10-08T02:41:06.080Z,956.60
2022-10-08T02:42:06.078Z,956.61
2022-10-08T02:43:06.057Z,956.64
2022-10-08T02:44:06.074Z,956.66
2022-10-08T02:45:06.026Z,956.67
2022-10-08T02:46:06.126Z,956.67
2022-10-08T02:47:05.999Z,956.69
2022-10-08T02:48:06.038Z,956.67
2022-10-08T02:49:06.006Z,956.65
2022-10-08T02:50:05.956Z,956.66
2022-10-08T02:51:05.949Z,956.67
2022-10-08T02:52:05.929Z,956.62
2022-10-08T02:53:05.910Z,956.70
2022-10-08T02:54:05.967Z,956.74
2022-10-08T02:55:05.888Z,956.69
2022-10-08T02:56:05.871Z,956.67
2022-10-08T02:57:09.338Z,956.73
2022-10-08T02:58:05.851Z,956.74
2022-10-08T02:59:05.869Z,956.74
2022-10-08T03:00:05.830Z,956.72
2022-10-08T03:01:05.885Z,956.71
2022-10-08T03:02:05.848Z,956.70
2022-10-08T03:03:05.782Z,956.71
2022-10-08T03:04:05.801Z,956.73
2022-10-08T03:05:05.761Z,956.76
2022-10-08T03:06:05.764Z,956.75
2022-10-08T03:07:05.729Z,956.71
2022-10-08T03:08:05.714Z,956.72
2022-10-08T03:09:05.696Z,956.70
2022-10-08T03:10:05.728Z,956.73
2022-10-08T03:11:05.682Z,956.74
2022-10-08T03:12:05.677Z,956.74
2022-10-08T03:13:05.664Z,956.70
2022-10-08T03:14:05.640Z,956.69
2022-10-08T03:15:05.656Z,956.72
2022-10-08T03:16:05.611Z,956.71
2022-10-08T03:17:05.639Z,956.71
2022-10-08T03:18:05.586Z,956.71
2022-10-08T03:19:05.569Z,956.70
2022-10-08T03:20:05.582Z,956.75
2022-10-08T03:21:05.554Z,956.71
2022-10-08T03:22:05.562Z,956.75
2022-10-08T03:23:05.530Z,956.74
2022-10-08T03:24:05.508Z,956.73
2022-10-08T03:25:05.516Z,956.74
2022-10-08T03:26:05.480Z,956.73
2022-10-08T03:27:05.491Z,956.79
2022-10-08T03:28:05.532Z,956.76
2022-10-08T03:29:05.442Z,956.79
2022-10-08T03:30:05.423Z,956.76
2022-10-08T03:31:05.441Z,956.77
2022-10-08T03:32:05.420Z,956.76
2022-10-08T03:33:05.389Z,956.74
2022-10-08T03:34:05.368Z,956.75
2022-10-08T03:35:05.363Z,956.72
2022-10-08T03:36:05.345Z,956.73
2022-10-08T03:37:05.353Z,956.75
2022-10-08T03:38:05.369Z,956.78
2022-10-08T03:39:05.330Z,956.80
2022-10-08T03:40:05.304Z,956.78
2022-10-08T03:41:05.277Z,956.77
2022-10-08T03:42:05.267Z,956.75
2022-10-08T03:43:05.260Z,956.76
2022-10-08T03:44:05.266Z,956.78
2022-10-08T03:45:05.221Z,956.75
2022-10-08T03:46:05.302Z,956.79
2022-10-08T03:47:05.200Z,956.78
2022-10-08T03:48:05.187Z,956.78
2022-10-08T03:49:05.177Z,956.84
2022-10-08T03:50:05.234Z,956.83
2022-10-08T03:51:05.162Z,956.86
2022-10-08T03:52:05.157Z,956.85
2022-10-08T03:53:05.116Z,956.85
2022-10-08T03:54:05.119Z,956.88
2022-10-08T03:55:05.122Z,956.88
2022-10-08T03:56:05.102Z,956.85
2022-10-08T03:57:05.059Z,956.85
2022-10-08T03:58:05.048Z,956.85
2022-10-08T03:59:05.056Z,956.85
2022-10-08T04:00:05.062Z,956.85
2022-10-08T04:01:05.035Z,956.88
2022-10-08T04:02:04.995Z,956.91
2022-10-08T04:03:05.083Z,956.88
2022-10-08T04:04:04.974Z,956.85
2022-10-08T04:05:05.001Z,956.89
2022-10-08T04:06:04.958Z,956.84
2022-10-08T04:07:04.929Z,956.91
2022-10-08T04:08:04.962Z,956.91
2022-10-08T04:09:04.904Z,956.92
2022-10-08T04:10:04.890Z,956.91
2022-10-08T04:11:04.916Z,956.90
2022-10-08T04:12:04.862Z,956.92
2022-10-08T04:13:04.847Z,956.94
2022-10-08T04:14:04.875Z,956.93
2022-10-08T04:15:04.881Z,956.90
2022-10-08T04:16:04.875Z,956.95
2022-10-08T04:17:04.789Z,956.95
2022-10-08T04:18:04.781Z,956.95
2022-10-08T04:19:04.800Z,956.96
2022-10-08T04:20:04.753Z,956.91
2022-10-08T04:21:04.748Z,956.92
2022-10-08T04:22:04.727Z,956.90
2022-10-08T04:23:04.720Z,956.88
2022-10-08T04:24:04.721Z,956.83
2022-10-08T04:25:04.712Z,956.85
2022-10-08T04:26:04.675Z,956.86
2022-10-08T04:27:04.686Z,956.87
2022-10-08T04:28:04.719Z,956.88
2022-10-08T04:29:04.633Z,956.86
2022-10-08T04:30:04.638Z,956.84
2022-10-08T04:31:04.731Z,956.87
2022-10-08T04:32:04.617Z,956.86
2022-10-08T04:33:04.604Z,956.84
2022-10-08T04:34:04.577Z,956.84
2022-10-08T04:35:04.558Z,956.81
2022-10-08T04:36:04.551Z,956.81
2022-10-08T04:37:04.559Z,956.79
2022-10-08T04:38:04.512Z,956.79
2022-10-08T04:39:04.510Z,956.80
2022-10-08T04:40:04.482Z,956.78
2022-10-08T04:41:04.465Z,956.81
2022-10-08T04:42:04.473Z,956.81
2022-10-08T04:43:04.461Z,956.81
2022-10-08T04:44:04.433Z,956.79
2022-10-08T04:45:04.419Z,956.84
2022-10-08T04:46:04.463Z,956.82
2022-10-08T04:47:04.407Z,956.81
2022-10-08T04:48:04.390Z,956.79
2022-10-08T04:49:04.379Z,956.81
2022-10-08T04:50:04.354Z,956.80
2022-10-08T04:51:09.406Z,956.81
2022-10-08T04:52:04.356Z,956.84
2022-10-08T04:53:04.314Z,956.82
2022-10-08T04:54:04.299Z,956.82
2022-10-08T04:55:04.291Z,956.82
2022-10-08T04:56:04.261Z,956.79
2022-10-08T04:57:04.294Z,956.80
2022-10-08T04:58:04.236Z,956.81
2022-10-08T04:59:04.226Z,956.79
2022-10-08T05:00:18.084Z,956.78
2022-10-08T05:01:04.217Z,956.80
2022-10-08T05:02:04.257Z,956.85
2022-10-08T05:03:04.268Z,956.82
2022-10-08T05:04:04.157Z,956.83
2022-10-08T05:05:04.149Z,956.84
2022-10-08T05:06:04.141Z,956.86
2022-10-08T05:07:04.130Z,956.83
2022-10-08T05:08:04.135Z,956.88
2022-10-08T05:09:04.107Z,956.83
2022-10-08T05:10:04.078Z,956.80
2022-10-08T05:11:04.070Z,956.81
2022-10-08T05:12:04.083Z,956.82
2022-10-08T05:13:04.086Z,956.89
2022-10-08T05:14:04.056Z,956.91
2022-10-08T05:15:04.036Z,956.95
2022-10-08T05:16:04.067Z,956.89
2022-10-08T05:17:04.012Z,956.91
2022-10-08T05:18:03.978Z,956.91
2022-10-08T05:19:03.987Z,956.90
2022-10-08T05:20:03.955Z,956.87
2022-10-08T05:21:03.935Z,956.83
2022-10-08T05:22:03.922Z,956.87
2022-10-08T05:23:03.913Z,956.89
2022-10-08T05:24:03.969Z,956.90
2022-10-08T05:25:03.883Z,956.94
2022-10-08T05:26:03.900Z,956.98
2022-10-08T05:27:03.851Z,956.94
2022-10-08T05:28:03.950Z,956.94
2022-10-08T05:29:03.830Z,956.95
2022-10-08T05:30:03.805Z,956.97
2022-10-08T05:31:03.902Z,956.98
2022-10-08T05:32:03.793Z,956.97
2022-10-08T05:33:03.785Z,956.99
2022-10-08T05:34:03.763Z,956.99
2022-10-08T05:35:03.753Z,956.97
2022-10-08T05:36:03.751Z,956.97
2022-10-08T05:37:03.732Z,957.02
2022-10-08T05:38:03.696Z,956.99
2022-10-08T05:39:03.716Z,957.01
2022-10-08T05:40:03.686Z,957.02
2022-10-08T05:41:03.672Z,957.00
2022-10-08T05:42:03.670Z,957.00
2022-10-08T05:43:03.638Z,957.01
2022-10-08T05:44:03.651Z,957.00
2022-10-08T05:45:03.611Z,957.00
2022-10-08T05:46:03.633Z,957.02
2022-10-08T05:47:03.582Z,957.03
2022-10-08T05:48:03.582Z,957.04
2022-10-08T05:49:03.567Z,957.02
2022-10-08T05:50:03.545Z,957.01
2022-10-08T05:51:03.525Z,957.02
2022-10-08T05:52:03.530Z,957.04
2022-10-08T05:53:07.374Z,957.07
2022-10-08T05:54:03.507Z,957.11
2022-10-08T05:55:03.527Z,957.11
2022-10-08T05:56:03.474Z,957.08
2022-10-08T05:57:03.471Z,957.11
2022-10-08T05:58:03.441Z,957.12
2022-10-08T05:59:03.484Z,957.13
2022-10-08T06:00:03.404Z,957.16
2022-10-08T06:01:03.400Z,957.14
2022-10-08T06:02:03.416Z,957.13
2022-10-08T06:03:03.486Z,957.13
2022-10-08T06:04:08.536Z,957.12
2022-10-08T06:05:03.396Z,957.08
2022-10-08T06:06:03.357Z,957.15
2022-10-08T06:07:03.358Z,957.14
2022-10-08T06:08:03.301Z,957.14
2022-10-08T06:09:03.339Z,957.12
2022-10-08T06:10:03.306Z,957.12
2022-10-08T06:11:03.267Z,957.11
2022-10-08T06:12:03.278Z,957.11
2022-10-08T06:13:03.241Z,957.09
2022-10-08T06:14:03.220Z,957.08
2022-10-08T06:15:03.233Z,957.10
2022-10-08T06:16:03.228Z,957.08
2022-10-08T06:17:03.171Z,957.10
2022-10-08T06:18:03.163Z,957.10
2022-10-08T06:19:03.221Z,957.13
2022-10-08T06:20:03.159Z,957.18
2022-10-08T06:21:03.135Z,957.14
2022-10-08T06:22:03.107Z,957.14
2022-10-08T06:23:03.131Z,957.17
2022-10-08T06:24:03.085Z,957.14
2022-10-08T06:25:03.146Z,957.22
2022-10-08T06:26:03.049Z,957.21
2022-10-08T06:27:03.041Z,957.25
2022-10-08T06:28:03.071Z,957.28
2022-10-08T06:29:03.026Z,957.23
2022-10-08T06:30:03.024Z,957.23
2022-10-08T06:31:03.073Z,957.25
2022-10-08T06:32:02.968Z,957.18
2022-10-08T06:33:02.969Z,957.22
2022-10-08T06:34:02.984Z,957.27
2022-10-08T06:35:02.943Z,957.27
2022-10-08T06:36:02.918Z,957.29
2022-10-08T06:37:02.933Z,957.30
2022-10-08T06:38:02.902Z,957.31
2022-10-08T06:39:02.878Z,957.32
2022-10-08T06:40:02.870Z,957.33
2022-10-08T06:41:02.853Z,957.37
2022-10-08T06:42:02.872Z,957.36
2022-10-08T06:43:02.834Z,957.38
2022-10-08T06:44:02.805Z,957.39
2022-10-08T06:45:02.807Z,957.35
2022-10-08T06:46:02.785Z,957.35
2022-10-08T06:47:02.956Z,957.38
2022-10-08T06:48:02.775Z,957.37
2022-10-08T06:49:02.751Z,957.41
2022-10-08T06:50:02.773Z,957.39
2022-10-08T06:51:02.722Z,957.37
2022-10-08T06:52:02.726Z,957.36
2022-10-08T06:53:02.699Z,957.39
2022-10-08T06:54:07.363Z,957.41
2022-10-08T06:55:02.678Z,957.35
2022-10-08T06:56:02.663Z,957.38
2022-10-08T06:57:02.665Z,957.40
2022-10-08T06:58:02.643Z,957.35
2022-10-08T06:59:02.673Z,957.39
2022-10-08T07:00:02.631Z,957.43
2022-10-08T07:01:02.669Z,957.44
2022-10-08T07:02:02.597Z,957.47
2022-10-08T07:03:02.565Z,957.46
2022-10-08T07:04:02.546Z,957.47
2022-10-08T07:05:02.563Z,957.48
2022-10-08T07:06:02.520Z,957.49
2022-10-08T07:07:02.540Z,957.45
2022-10-08T07:08:02.512Z,957.47
2022-10-08T07:09:02.492Z,957.51
2022-10-08T07:10:02.466Z,957.45
2022-10-08T07:11:02.450Z,957.45
2022-10-08T07:12:02.465Z,957.45
2022-10-08T07:13:02.433Z,957.43
2022-10-08T07:14:02.439Z,957.49
2022-10-08T07:15:02.409Z,957.50
2022-10-08T07:16:02.443Z,957.54
2022-10-08T07:17:02.384Z,957.52
2022-10-08T07:18:02.359Z,957.55
2022-10-08T07:19:02.378Z,957.55
2022-10-08T07:20:02.341Z,957.64
2022-10-08T07:21:02.332Z,957.61
2022-10-08T07:22:02.318Z,957.66
2022-10-08T07:23:02.305Z,957.63
2022-10-08T07:24:02.311Z,957.66
2022-10-08T07:25:02.289Z,957.63
2022-10-08T07:26:02.257Z,957.65
2022-10-08T07:27:02.249Z,957.70
2022-10-08T07:28:02.271Z,957.68
2022-10-08T07:29:02.304Z,957.72
2022-10-08T07:30:02.212Z,957.76
2022-10-08T07:31:02.411Z,957.76
2022-10-08T07:32:02.259Z,957.75
2022-10-08T07:33:02.169Z,957.77
2022-10-08T07:34:02.157Z,957.77
2022-10-08T07:35:02.147Z,957.75
2022-10-08T07:36:02.126Z,957.74
2022-10-08T07:37:02.139Z,957.76
2022-10-08T07:38:02.095Z,957.77
2022-10-08T07:39:02.102Z,957.76
2022-10-08T07:40:02.086Z,957.73
2022-10-08T07:41:02.050Z,957.76
2022-10-08T07:42:02.070Z,957.74
2022-10-08T07:43:02.056Z,957.75
2022-10-08T07:44:02.047Z,957.75
2022-10-08T07:45:02.006Z,957.79
2022-10-08T07:46:02.054Z,957.73
2022-10-08T07:47:02.007Z,957.79
2022-10-08T07:48:01.959Z,957.81
2022-10-08T07:49:01.957Z,957.81
2022-10-08T07:50:01.956Z,957.81
2022-10-08T07:51:01.942Z,957.78
2022-10-08T07:52:01.906Z,957.78
2022-10-08T07:53:01.895Z,957.78
2022-10-08T07:54:02.932Z,957.80
2022-10-08T07:55:01.895Z,957.86
2022-10-08T07:56:01.860Z,957.84
2022-10-08T07:57:01.857Z,957.84
2022-10-08T07:58:01.839Z,957.84
2022-10-08T07:59:01.823Z,957.84
2022-10-08T08:00:01.796Z,957.86
2022-10-08T08:01:01.897Z,957.87
2022-10-08T08:02:01.822Z,957.90
2022-10-08T08:03:01.782Z,957.89
2022-10-08T08:04:01.766Z,957.92
2022-10-08T08:05:01.754Z,957.92
2022-10-08T08:06:01.719Z,957.93
2022-10-08T08:07:01.713Z,957.95
2022-10-08T08:08:01.692Z,957.93
2022-10-08T08:09:01.706Z,957.95
2022-10-08T08:10:01.672Z,957.95
2022-10-08T08:11:01.659Z,957.97
2022-10-08T08:12:01.682Z,957.97
2022-10-08T08:13:01.637Z,957.94
2022-10-08T08:14:01.615Z,957.96
2022-10-08T08:15:01.596Z,957.95
2022-10-08T08:16:01.650Z,957.90
2022-10-08T08:17:01.564Z,957.88
2022-10-08T08:18:01.584Z,957.92
2022-10-08T08:19:01.549Z,957.89
2022-10-08T08:20:01.563Z,957.86
2022-10-08T08:21:01.529Z,957.88
2022-10-08T08:22:01.530Z,957.91
2022-10-08T08:23:01.531Z,957.90
2022-10-08T08:24:01.497Z,957.91
2022-10-08T08:25:01.494Z,957.94
2022-10-08T08:26:01.465Z,957.87
2022-10-08T08:27:01.442Z,957.86
2022-10-08T08:28:01.460Z,957.84
2022-10-08T08:29:01.450Z,957.87
2022-10-08T08:30:01.406Z,957.86
2022-10-08T08:31:01.392Z,957.87
2022-10-08T08:32:01.447Z,957.92
2022-10-08T08:33:01.362Z,957.84
2022-10-08T08:34:01.370Z,957.87
2022-10-08T08:35:01.339Z,957.86
2022-10-08T08:36:01.348Z,957.84
2022-10-08T08:37:01.306Z,957.83
2022-10-08T08:38:01.305Z,957.85
2022-10-08T08:39:01.277Z,957.82
2022-10-08T08:40:01.277Z,957.86
2022-10-08T08:41:01.285Z,957.85
2022-10-08T08:42:01.257Z,957.87
2022-10-08T08:43:01.213Z,957.86
2022-10-08T08:44:01.239Z,957.87
2022-10-08T08:45:01.195Z,957.93
2022-10-08T08:46:01.284Z,957.90
2022-10-08T08:47:01.215Z,957.88
2022-10-08T08:48:01.162Z,957.88
2022-10-08T08:49:01.170Z,957.92
2022-10-08T08:50:01.134Z,957.89
2022-10-08T08:51:01.124Z,957.87
2022-10-08T08:52:01.128Z,957.84
2022-10-08T08:53:01.091Z,957.83
2022-10-08T08:54:01.104Z,957.83
2022-10-08T08:55:01.084Z,957.81
2022-10-08T08:56:01.056Z,957.82
2022-10-08T08:57:01.033Z,957.80
2022-10-08T08:58:01.035Z,957.83
2022-10-08T08:59:01.004Z,957.83
2022-10-08T09:00:01.018Z,957.82
2022-10-08T09:01:01.036Z,957.93
2022-10-08T09:02:01.031Z,957.89
2022-10-08T09:03:00.979Z,957.87
2022-10-08T09:04:00.975Z,957.86
2022-10-08T09:05:00.968Z,957.88
2022-10-08T09:06:00.923Z,957.87
2022-10-08T09:07:00.920Z,957.87
2022-10-08T09:08:00.885Z,957.90
2022-10-08T09:09:00.887Z,957.88
2022-10-08T09:10:00.859Z,957.88
2022-10-08T09:11:00.875Z,957.88
2022-10-08T09:12:00.844Z,957.89
2022-10-08T09:13:00.818Z,957.86
2022-10-08T09:14:00.810Z,957.87
2022-10-08T09:15:00.784Z,957.78
2022-10-08T09:16:00.815Z,957.81
2022-10-08T09:17:00.978Z,957.82
2022-10-08T09:18:00.756Z,957.84
2022-10-08T09:19:00.763Z,957.81
2022-10-08T09:20:00.724Z,957.80
2022-10-08T09:21:00.761Z,957.78
2022-10-08T09:22:00.703Z,957.78
2022-10-08T09:23:00.729Z,957.78
2022-10-08T09:24:00.718Z,957.75
2022-10-08T09:25:00.661Z,957.74
2022-10-08T09:26:00.647Z,957.78
2022-10-08T09:27:00.630Z,957.75
2022-10-08T09:28:00.700Z,957.77
2022-10-08T09:29:00.606Z,957.78
2022-10-08T09:30:00.598Z,957.78
2022-10-08T09:31:02.482Z,957.74
2022-10-08T09:32:00.563Z,957.74
2022-10-08T09:33:00.580Z,957.73
2022-10-08T09:34:00.543Z,957.71
2022-10-08T09:35:00.529Z,957.69
2022-10-08T09:36:00.564Z,957.59
2022-10-08T09:37:00.498Z,957.63
2022-10-08T09:38:05.480Z,957.65
2022-10-08T09:39:00.506Z,957.63
2022-10-08T09:40:00.494Z,957.62
2022-10-08T09:41:00.451Z,957.61
2022-10-08T09:42:00.465Z,957.68
2022-10-08T09:43:00.420Z,957.69
2022-10-08T09:44:00.420Z,957.65
2022-10-08T09:45:00.410Z,957.66
2022-10-08T09:46:00.445Z,957.65
2022-10-08T09:47:00.381Z,957.65
2022-10-08T09:48:00.358Z,957.63
2022-10-08T09:49:00.364Z,957.60
2022-10-08T09:50:00.361Z,957.60
2022-10-08T09:51:00.329Z,957.54
2022-10-08T09:52:00.306Z,957.59
2022-10-08T09:53:00.291Z,957.58
2022-10-08T09:54:00.291Z,957.53
2022-10-08T09:55:00.285Z,957.54
2022-10-08T09:56:00.256Z,957.49
2022-10-08T09:57:00.232Z,957.53
2022-10-08T09:58:00.232Z,957.55
2022-10-08T09:59:00.212Z,957.50
2022-10-08T10:00:00.226Z,957.52
2022-10-08T10:01:00.218Z,957.50
2022-10-08T10:02:00.163Z,957.51
2022-10-08T10:03:00.185Z,957.45
2022-10-08T10:04:00.232Z,957.47
2022-10-08T10:05:00.131Z,957.48
2022-10-08T10:06:00.124Z,957.48
2022-10-08T10:07:00.102Z,957.50
2022-10-08T10:08:00.110Z,957.47
2022-10-08T10:09:00.108Z,957.43
2022-10-08T10:10:00.091Z,957.45
2022-10-08T10:11:00.050Z,957.39
2022-10-08T10:12:00.037Z,957.40
2022-10-08T10:13:00.058Z,957.40
2022-10-08T10:14:00.047Z,957.36
2022-10-08T10:14:59.997Z,957.34
2022-10-08T10:16:00.051Z,957.35
2022-10-08T10:17:00.047Z,957.32
2022-10-08T10:17:59.962Z,957.31
2022-10-08T10:18:59.968Z,957.28
2022-10-08T10:19:59.944Z,957.28
2022-10-08T10:20:59.941Z,957.30
2022-10-08T10:21:59.925Z,957.29
2022-10-08T10:22:59.893Z,957.31
2022-10-08T10:23:59.876Z,957.30
2022-10-08T10:24:59.895Z,957.29
2022-10-08T10:26:04.092Z,957.25
2022-10-08T10:26:59.839Z,957.27
2022-10-08T10:27:59.832Z,957.25
2022-10-08T10:28:59.808Z,957.18
2022-10-08T10:29:59.794Z,957.19
2022-10-08T10:30:59.856Z,957.19
2022-10-08T10:31:59.773Z,957.14
2022-10-08T10:32:59.751Z,957.11
2022-10-08T10:33:59.764Z,957.08
2022-10-08T10:34:59.731Z,957.12
2022-10-08T10:35:59.749Z,957.09
2022-10-08T10:36:59.750Z,957.10
2022-10-08T10:37:59.714Z,957.05
2022-10-08T10:38:59.678Z,957.03
2022-10-08T10:39:59.664Z,957.07
2022-10-08T10:40:59.667Z,957.04
2022-10-08T10:41:59.641Z,957.02
2022-10-08T10:42:59.626Z,957.06
2022-10-08T10:43:59.619Z,957.01
2022-10-08T10:44:59.600Z,956.98
2022-10-08T10:45:59.646Z,956.98
2022-10-08T10:46:59.567Z,956.96
2022-10-08T10:47:59.562Z,956.95
2022-10-08T10:48:59.566Z,956.93
2022-10-08T10:49:59.528Z,956.91
2022-10-08T10:50:59.529Z,956.91
2022-10-08T10:51:59.513Z,956.89
2022-10-08T10:52:59.486Z,956.86
2022-10-08T10:53:59.485Z,956.76
2022-10-08T10:54:59.521Z,956.79
2022-10-08T10:55:59.457Z,956.81
2022-10-08T10:56:59.445Z,956.76
2022-10-08T10:57:59.425Z,956.79
2022-10-08T10:58:59.414Z,956.77
2022-10-08T10:59:59.429Z,956.75
2022-10-08T11:00:59.402Z,956.73
2022-10-08T11:01:59.421Z,956.66
2022-10-08T11:02:59.410Z,956.67
2022-10-08T11:03:59.349Z,956.61
2022-10-08T11:05:01.724Z,956.59
2022-10-08T11:05:59.329Z,956.59
2022-10-08T11:06:59.333Z,956.58
2022-10-08T11:07:59.284Z,956.58
2022-10-08T11:08:59.278Z,956.59
2022-10-08T11:09:59.354Z,956.58
2022-10-08T11:10:59.296Z,956.60
2022-10-08T11:11:59.239Z,956.58
2022-10-08T11:12:59.228Z,956.61
2022-10-08T11:13:59.221Z,956.60
2022-10-08T11:14:59.200Z,956.58
2022-10-08T11:15:59.359Z,956.57
2022-10-08T11:16:59.171Z,956.52
2022-10-08T11:17:59.161Z,956.53
2022-10-08T11:18:59.142Z,956.49
2022-10-08T11:19:59.134Z,956.50
2022-10-08T11:20:59.152Z,956.50
2022-10-08T11:21:59.115Z,956.50
2022-10-08T11:22:59.124Z,956.49
2022-10-08T11:23:59.079Z,956.52
2022-10-08T11:24:59.081Z,956.47
2022-10-08T11:26:59.120Z,956.52
2022-10-08T11:27:59.033Z,956.48
2022-10-08T11:28:59.017Z,956.49
2022-10-08T11:29:58.999Z,956.45
2022-10-08T11:30:59.074Z,956.50
2022-10-08T11:31:59.023Z,956.43
2022-10-08T11:32:58.966Z,956.42
2022-10-08T11:33:58.953Z,956.41
2022-10-08T11:34:58.964Z,956.39
2022-10-08T11:35:58.934Z,956.41
2022-10-08T11:36:58.935Z,956.38
2022-10-08T11:37:58.940Z,956.39
2022-10-08T11:38:58.884Z,956.34
2022-10-08T11:39:58.874Z,956.34
2022-10-08T11:40:58.861Z,956.36
2022-10-08T11:41:58.845Z,956.37
2022-10-08T11:42:58.854Z,956.40
2022-10-08T11:43:58.822Z,956.39
2022-10-08T11:44:58.820Z,956.43
2022-10-08T11:45:58.842Z,956.35
2022-10-08T11:46:58.784Z,956.40
2022-10-08T11:47:58.796Z,956.40
2022-10-08T11:48:58.755Z,956.43
2022-10-08T11:49:58.738Z,956.39
2022-10-08T11:50:58.739Z,956.40
2022-10-08T11:51:58.713Z,956.33
2022-10-08T11:52:58.766Z,956.33
2022-10-08T11:53:58.708Z,956.38
2022-10-08T11:54:58.667Z,956.35
2022-10-08T11:55:58.666Z,956.38
2022-10-08T11:56:58.648Z,956.35
2022-10-08T11:58:14.044Z,956.39
2022-10-08T11:58:58.667Z,956.40
2022-10-08T11:59:58.740Z,956.38
2022-10-08T12:00:58.629Z,956.41
2022-10-08T12:01:58.593Z,956.37
2022-10-08T12:02:58.737Z,956.39
2022-10-08T12:03:58.595Z,956.39
2022-10-08T12:04:58.583Z,956.40
2022-10-08T12:05:58.538Z,956.39
2022-10-08T12:06:58.537Z,956.40
2022-10-08T12:07:58.507Z,956.39
2022-10-08T12:08:58.530Z,956.44
2022-10-08T12:09:58.478Z,956.36
2022-10-08T12:10:58.500Z,956.41
2022-10-08T12:11:58.450Z,956.34
2022-10-08T12:12:58.445Z,956.34
2022-10-08T12:13:58.430Z,956.35
2022-10-08T12:14:58.478Z,956.31
2022-10-08T12:15:58.455Z,956.28
2022-10-08T12:16:58.389Z,956.25
2022-10-08T12:17:58.368Z,956.25
2022-10-08T12:18:58.353Z,956.25
2022-10-08T12:19:58.377Z,956.23
2022-10-08T12:20:58.327Z,956.22
2022-10-08T12:21:58.350Z,956.21
2022-10-08T12:22:58.300Z,956.22
2022-10-08T12:23:58.284Z,956.23
2022-10-08T12:24:58.295Z,956.16
2022-10-08T12:25:58.280Z,956.20
2022-10-08T12:26:58.275Z,956.16
2022-10-08T12:27:58.269Z,956.16
2022-10-08T12:28:58.215Z,956.13